createdAt,value
2022-12-11T00:01:33.222Z,88.60
2022-12-11T00:16:26.909Z,88.87
2022-12-11T00:31:13.166Z,89.21
2022-12-11T00:46:03.097Z,88.51
2022-12-11T01:00:52.035Z,88.29
2022-12-11T01:15:42.046Z,87.88
2022-12-11T01:30:31.008Z,87.46
2022-12-11T01:45:38.451Z,86.94
2022-12-11T02:00:33.295Z,86.33
2022-12-11T02:15:30.667Z,86.69
2022-12-11T02:30:24.753Z,86.80
2022-12-11T02:45:14.438Z,87.18
2022-12-11T03:00:03.392Z,87.95
2022-12-11T03:14:52.836Z,87.77
2022-12-11T03:29:42.631Z,88.36
2022-12-11T03:44:33.394Z,88.46
2022-12-11T03:59:24.061Z,88.53
2022-12-11T04:14:32.175Z,87.63
2022-12-11T04:29:26.967Z,87.65
2022-12-11T04:44:16.910Z,87.40
2022-12-11T04:59:07.317Z,87.39
2022-12-11T05:13:57.046Z,86.84
2022-12-11T05:28:46.386Z,87.14
2022-12-11T05:43:35.296Z,86.69
2022-12-11T05:58:24.839Z,86.74
2022-12-11T06:13:14.202Z,86.80
2022-12-11T06:28:03.503Z,87.15
2022-12-11T06:42:53.347Z,87.12
2022-12-11T06:57:42.665Z,86.75
2022-12-11T07:12:32.866Z,86.77
2022-12-11T07:27:22.525Z,86.80
2022-12-11T07:42:12.233Z,87.17
2022-12-11T07:57:01.679Z,87.23
2022-12-11T08:11:52.108Z,87.48
2022-12-11T08:26:42.557Z,87.20
2022-12-11T08:41:32.853Z,86.99
2022-12-11T08:56:23.041Z,86.67
2022-12-11T09:11:12.916Z,86.00
2022-12-11T09:26:08.883Z,84.49
2022-12-11T09:41:02.694Z,84.23
2022-12-11T09:56:07.261Z,83.76
2022-12-11T10:11:33.572Z,83.29
2022-12-11T10:26:30.381Z,82.60
2022-12-11T10:41:23.760Z,82.04
2022-12-11T10:56:16.794Z,81.39
2022-12-11T11:11:07.243Z,81.31
2022-12-11T11:25:57.040Z,80.46
2022-12-11T11:41:15.084Z,79.46
2022-12-11T11:56:29.220Z,80.02
2022-12-11T12:26:44.944Z,79.83
2022-12-11T12:41:36.593Z,78.87
2022-12-11T12:56:29.321Z,77.59
2022-12-11T13:11:18.810Z,77.00
2022-12-11T13:26:09.320Z,76.63
2022-12-11T13:40:58.758Z,76.90
2022-12-11T13:56:04.007Z,75.92
2022-12-11T14:10:59.939Z,69.04
2022-12-11T14:25:55.418Z,67.69
2022-12-11T14:40:47.714Z,70.90
2022-12-11T14:55:37.399Z,72.39
2022-12-11T15:10:35.695Z,74.87
2022-12-11T15:25:29.797Z,76.32
2022-12-11T15:40:19.404Z,77.99
2022-12-11T15:55:08.763Z,78.27
2022-12-11T16:24:48.788Z,78.48
2022-12-11T16:39:39.310Z,79.28
2022-12-11T16:54:29.421Z,78.78
2022-12-11T17:24:09.470Z,80.11
2022-12-11T17:38:58.234Z,79.82
2022-12-11T17:53:47.899Z,80.34
2022-12-11T18:08:38.112Z,80.76
2022-12-11T18:23:27.935Z,81.37
2022-12-11T18:38:18.038Z,81.28
2022-12-11T18:53:07.914Z,81.51
2022-12-11T19:08:18.411Z,81.85
2022-12-11T19:23:33.363Z,82.51
2022-12-11T19:38:50.688Z,82.97
2022-12-11T19:54:08.868Z,83.15
2022-12-11T20:09:04.644Z,83.38
2022-12-11T20:23:54.933Z,83.56
2022-12-11T20:38:44.268Z,83.61
2022-12-11T20:53:33.746Z,83.57
2022-12-11T21:08:22.674Z,83.73
2022-12-11T21:23:12.595Z,83.90
2022-12-11T21:38:02.044Z,84.14
2022-12-11T21:52:51.794Z,84.11
2022-12-11T22:07:41.289Z,84.09
2022-12-11T22:22:31.656Z,83.68
2022-12-11T22:37:21.569Z,84.19
2022-12-11T22:52:12.342Z,82.31
2022-12-11T23:07:02.771Z,80.34
2022-12-11T23:21:52.173Z,79.77
2022-12-11T23:36:41.225Z,79.01
2022-12-11T23:51:31.283Z,78.79
